sensor_id;sensor_type;location;lat;lon;timestamp;temperature;humidity
37460;DHT22;23318;50.966;5.284;2023-03-14T00:02:16;11.20;99.90
37460;DHT22;23318;50.966;5.284;2023-03-14T00:04:42;11.30;99.90
37460;DHT22;23318;50.966;5.284;2023-03-14T00:07:09;11.20;99.90
37460;DHT22;23318;50.966;5.284;2023-03-14T00:09:35;11.10;99.90
37460;DHT22;23318;50.966;5.284;2023-03-14T00:12:01;11.00;99.90
37460;DHT22;23318;50.966;5.284;2023-03-14T00:14:28;11.00;99.90
37460;DHT22;23318;50.966;5.284;2023-03-14T00:16:54;11.00;99.90
37460;DHT22;23318;50.966;5.284;2023-03-14T00:19:20;11.00;99.90
37460;DHT22;23318;50.966;5.284;2023-03-14T00:21:46;11.00;99.90
37460;DHT22;23318;50.966;5.284;2023-03-14T00:24:12;11.00;99.90
37460;DHT22;23318;50.966;5.284;2023-03-14T00:26:38;11.00;99.90
37460;DHT22;23318;50.966;5.284;2023-03-14T00:29:04;11.00;99.90
37460;DHT22;23318;50.966;5.284;2023-03-14T00:31:29;10.90;99.90
37460;DHT22;23318;50.966;5.284;2023-03-14T00:33:56;10.80;99.90
37460;DHT22;23318;50.966;5.284;2023-03-14T00:36:22;10.70;99.90
37460;DHT22;23318;50.966;5.284;2023-03-14T00:38:50;10.80;99.90
37460;DHT22;23318;50.966;5.284;2023-03-14T00:41:19;10.80;99.90
37460;DHT22;23318;50.966;5.284;2023-03-14T00:43:45;10.90;99.90
37460;DHT22;23318;50.966;5.284;2023-03-14T00:46:11;10.80;99.90
37460;DHT22;23318;50.966;5.284;2023-03-14T00:48:39;10.70;99.90
37460;DHT22;23318;50.966;5.284;2023-03-14T00:51:06;10.70;99.90
37460;DHT22;23318;50.966;5.284;2023-03-14T00:53:36;10.60;99.90
37460;DHT22;23318;50.966;5.284;2023-03-14T00:56:04;10.50;99.90
37460;DHT22;23318;50.966;5.284;2023-03-14T00:58:30;10.30;99.90
37460;DHT22;23318;50.966;5.284;2023-03-14T01:00:56;10.20;99.90
37460;DHT22;23318;50.966;5.284;2023-03-14T01:03:22;10.20;99.90
37460;DHT22;23318;50.966;5.284;2023-03-14T01:05:49;10.20;99.90
37460;DHT22;23318;50.966;5.284;2023-03-14T01:08:15;10.30;99.90
37460;DHT22;23318;50.966;5.284;2023-03-14T01:10:41;10.30;99.90
37460;DHT22;23318;50.966;5.284;2023-03-14T01:13:08;10.30;99.90
37460;DHT22;23318;50.966;5.284;2023-03-14T01:15:35;10.30;99.90
37460;DHT22;23318;50.966;5.284;2023-03-14T01:18:01;10.30;99.90
37460;DHT22;23318;50.966;5.284;2023-03-14T01:20:26;10.40;99.90
37460;DHT22;23318;50.966;5.284;2023-03-14T01:22:52;10.40;99.90
37460;DHT22;23318;50.966;5.284;2023-03-14T01:25:18;10.40;99.90
37460;DHT22;23318;50.966;5.284;2023-03-14T01:27:44;10.40;99.90
37460;DHT22;23318;50.966;5.284;2023-03-14T01:30:11;10.40;99.90
37460;DHT22;23318;50.966;5.284;2023-03-14T01:32:37;10.30;99.90
37460;DHT22;23318;50.966;5.284;2023-03-14T01:35:03;10.40;99.90
37460;DHT22;23318;50.966;5.284;2023-03-14T01:37:29;10.50;99.90
37460;DHT22;23318;50.966;5.284;2023-03-14T01:39:55;10.40;99.90
37460;DHT22;23318;50.966;5.284;2023-03-14T01:42:20;10.50;99.90
37460;DHT22;23318;50.966;5.284;2023-03-14T01:44:58;10.50;99.90
37460;DHT22;23318;50.966;5.284;2023-03-14T01:47:24;10.60;99.90
37460;DHT22;23318;50.966;5.284;2023-03-14T01:49:56;10.60;99.90
37460;DHT22;23318;50.966;5.284;2023-03-14T01:52:38;10.60;99.90
37460;DHT22;23318;50.966;5.284;2023-03-14T01:55:12;10.60;99.90
37460;DHT22;23318;50.966;5.284;2023-03-14T01:57:45;10.60;99.90
37460;DHT22;23318;50.966;5.284;2023-03-14T02:00:15;10.70;99.90
37460;DHT22;23318;50.966;5.284;2023-03-14T02:02:45;10.60;99.90
37460;DHT22;23318;50.966;5.284;2023-03-14T02:05:13;10.60;99.90
37460;DHT22;23318;50.966;5.284;2023-03-14T02:07:47;10.60;99.90
37460;DHT22;23318;50.966;5.284;2023-03-14T02:10:16;10.70;99.90
37460;DHT22;23318;50.966;5.284;2023-03-14T02:12:45;10.80;99.90
37460;DHT22;23318;50.966;5.284;2023-03-14T02:15:11;10.70;99.90
37460;DHT22;23318;50.966;5.284;2023-03-14T02:17:37;10.80;99.90
37460;DHT22;23318;50.966;5.284;2023-03-14T02:22:40;10.80;99.90
37460;DHT22;23318;50.966;5.284;2023-03-14T02:27:54;10.70;99.90
37460;DHT22;23318;50.966;5.284;2023-03-14T02:30:26;10.60;99.90
37460;DHT22;23318;50.966;5.284;2023-03-14T02:32:54;10.60;99.90
37460;DHT22;23318;50.966;5.284;2023-03-14T02:35:33;10.40;99.90
37460;DHT22;23318;50.966;5.284;2023-03-14T02:38:02;10.10;99.90
37460;DHT22;23318;50.966;5.284;2023-03-14T02:40:29;10.00;99.90
37460;DHT22;23318;50.966;5.284;2023-03-14T02:42:54;9.80;99.90
37460;DHT22;23318;50.966;5.284;2023-03-14T02:47:59;9.60;99.90
37460;DHT22;23318;50.966;5.284;2023-03-14T02:50:29;9.50;99.90
37460;DHT22;23318;50.966;5.284;2023-03-14T02:52:56;9.40;99.90
37460;DHT22;23318;50.966;5.284;2023-03-14T02:55:23;9.30;99.90
37460;DHT22;23318;50.966;5.284;2023-03-14T02:57:50;9.30;99.90
37460;DHT22;23318;50.966;5.284;2023-03-14T03:00:16;9.30;99.90
37460;DHT22;23318;50.966;5.284;2023-03-14T03:02:41;9.30;99.90
37460;DHT22;23318;50.966;5.284;2023-03-14T03:05:07;9.30;99.90
37460;DHT22;23318;50.966;5.284;2023-03-14T03:07:33;9.20;99.90
37460;DHT22;23318;50.966;5.284;2023-03-14T03:09:59;9.20;99.90
37460;DHT22;23318;50.966;5.284;2023-03-14T03:12:25;9.10;99.90
37460;DHT22;23318;50.966;5.284;2023-03-14T03:14:50;9.00;99.90
37460;DHT22;23318;50.966;5.284;2023-03-14T03:17:16;9.00;99.90
37460;DHT22;23318;50.966;5.284;2023-03-14T03:19:42;9.00;99.90
37460;DHT22;23318;50.966;5.284;2023-03-14T03:22:08;9.10;99.90
37460;DHT22;23318;50.966;5.284;2023-03-14T03:24:33;9.10;99.90
37460;DHT22;23318;50.966;5.284;2023-03-14T03:26:59;9.00;99.90
37460;DHT22;23318;50.966;5.284;2023-03-14T03:29:25;9.10;99.90
37460;DHT22;23318;50.966;5.284;2023-03-14T03:31:50;9.00;99.90
37460;DHT22;23318;50.966;5.284;2023-03-14T03:34:16;9.10;99.90
37460;DHT22;23318;50.966;5.284;2023-03-14T03:36:42;9.10;99.90
37460;DHT22;23318;50.966;5.284;2023-03-14T03:39:07;9.10;99.90
37460;DHT22;23318;50.966;5.284;2023-03-14T03:41:33;9.10;99.90
37460;DHT22;23318;50.966;5.284;2023-03-14T03:43:59;9.20;99.90
37460;DHT22;23318;50.966;5.284;2023-03-14T03:46:25;9.30;99.90
37460;DHT22;23318;50.966;5.284;2023-03-14T03:48:55;9.20;99.90
37460;DHT22;23318;50.966;5.284;2023-03-14T03:51:21;9.20;99.90
37460;DHT22;23318;50.966;5.284;2023-03-14T03:53:46;9.30;99.90
37460;DHT22;23318;50.966;5.284;2023-03-14T03:56:12;9.30;99.90
37460;DHT22;23318;50.966;5.284;2023-03-14T03:58:38;9.30;99.90
37460;DHT22;23318;50.966;5.284;2023-03-14T04:01:05;9.40;99.90
37460;DHT22;23318;50.966;5.284;2023-03-14T04:03:32;9.40;99.90
37460;DHT22;23318;50.966;5.284;2023-03-14T04:06:06;9.30;99.90
37460;DHT22;23318;50.966;5.284;2023-03-14T04:08:32;9.30;99.90
37460;DHT22;23318;50.966;5.284;2023-03-14T04:10:59;9.40;99.90
37460;DHT22;23318;50.966;5.284;2023-03-14T04:13:26;9.40;99.90
37460;DHT22;23318;50.966;5.284;2023-03-14T04:15:52;9.40;99.90
37460;DHT22;23318;50.966;5.284;2023-03-14T04:18:19;9.40;99.90
37460;DHT22;23318;50.966;5.284;2023-03-14T04:20:44;9.40;99.90
37460;DHT22;23318;50.966;5.284;2023-03-14T04:23:10;9.40;99.90
37460;DHT22;23318;50.966;5.284;2023-03-14T04:25:37;9.40;99.90
37460;DHT22;23318;50.966;5.284;2023-03-14T04:28:03;9.40;99.90
37460;DHT22;23318;50.966;5.284;2023-03-14T04:30:29;9.40;99.90
37460;DHT22;23318;50.966;5.284;2023-03-14T04:32:55;9.40;99.90
37460;DHT22;23318;50.966;5.284;2023-03-14T04:35:21;9.40;99.90
37460;DHT22;23318;50.966;5.284;2023-03-14T04:37:46;9.50;99.90
37460;DHT22;23318;50.966;5.284;2023-03-14T04:40:14;9.50;99.90
37460;DHT22;23318;50.966;5.284;2023-03-14T04:42:40;9.50;99.90
37460;DHT22;23318;50.966;5.284;2023-03-14T04:45:06;9.40;99.90
37460;DHT22;23318;50.966;5.284;2023-03-14T04:47:32;9.50;99.90
37460;DHT22;23318;50.966;5.284;2023-03-14T04:49:58;9.40;99.90
37460;DHT22;23318;50.966;5.284;2023-03-14T04:52:24;9.40;99.90
37460;DHT22;23318;50.966;5.284;2023-03-14T04:54:50;9.40;99.90
37460;DHT22;23318;50.966;5.284;2023-03-14T04:57:15;9.40;99.90
37460;DHT22;23318;50.966;5.284;2023-03-14T04:59:41;9.50;99.90
37460;DHT22;23318;50.966;5.284;2023-03-14T05:02:07;9.50;99.90
37460;DHT22;23318;50.966;5.284;2023-03-14T05:04:33;9.40;99.90
37460;DHT22;23318;50.966;5.284;2023-03-14T05:06:59;9.50;99.90
37460;DHT22;23318;50.966;5.284;2023-03-14T05:09:25;9.50;99.90
37460;DHT22;23318;50.966;5.284;2023-03-14T05:11:51;9.40;99.90
37460;DHT22;23318;50.966;5.284;2023-03-14T05:14:16;9.50;99.90
37460;DHT22;23318;50.966;5.284;2023-03-14T05:16:42;9.40;99.90
37460;DHT22;23318;50.966;5.284;2023-03-14T05:19:08;9.40;99.90
37460;DHT22;23318;50.966;5.284;2023-03-14T05:21:34;9.50;99.90
37460;DHT22;23318;50.966;5.284;2023-03-14T05:23:59;9.50;99.90
37460;DHT22;23318;50.966;5.284;2023-03-14T05:26:25;9.50;99.90
37460;DHT22;23318;50.966;5.284;2023-03-14T05:28:50;9.60;99.90
37460;DHT22;23318;50.966;5.284;2023-03-14T05:31:16;9.50;99.90
37460;DHT22;23318;50.966;5.284;2023-03-14T05:33:42;9.50;99.90
37460;DHT22;23318;50.966;5.284;2023-03-14T05:36:08;9.50;99.90
37460;DHT22;23318;50.966;5.284;2023-03-14T05:38:33;9.40;99.90
37460;DHT22;23318;50.966;5.284;2023-03-14T05:40:59;9.50;99.90
37460;DHT22;23318;50.966;5.284;2023-03-14T05:43:25;9.50;99.90
37460;DHT22;23318;50.966;5.284;2023-03-14T05:45:50;9.40;99.90
37460;DHT22;23318;50.966;5.284;2023-03-14T05:48:16;9.50;99.90
37460;DHT22;23318;50.966;5.284;2023-03-14T05:50:42;9.50;99.90
37460;DHT22;23318;50.966;5.284;2023-03-14T05:53:08;9.50;99.90
37460;DHT22;23318;50.966;5.284;2023-03-14T05:55:33;9.50;99.90
37460;DHT22;23318;50.966;5.284;2023-03-14T05:57:59;9.50;99.90
37460;DHT22;23318;50.966;5.284;2023-03-14T06:00:25;9.50;99.90
37460;DHT22;23318;50.966;5.284;2023-03-14T06:02:50;9.50;99.90
37460;DHT22;23318;50.966;5.284;2023-03-14T06:05:16;9.50;99.90
37460;DHT22;23318;50.966;5.284;2023-03-14T06:07:42;9.50;99.90
37460;DHT22;23318;50.966;5.284;2023-03-14T06:10:08;9.40;99.90
37460;DHT22;23318;50.966;5.284;2023-03-14T06:12:34;9.40;99.90
37460;DHT22;23318;50.966;5.284;2023-03-14T06:15:00;9.50;99.90
37460;DHT22;23318;50.966;5.284;2023-03-14T06:17:25;9.40;99.90
37460;DHT22;23318;50.966;5.284;2023-03-14T06:19:51;9.40;99.90
37460;DHT22;23318;50.966;5.284;2023-03-14T06:22:17;9.40;99.90
37460;DHT22;23318;50.966;5.284;2023-03-14T06:24:42;9.40;99.90
37460;DHT22;23318;50.966;5.284;2023-03-14T06:27:08;9.50;99.90
37460;DHT22;23318;50.966;5.284;2023-03-14T06:29:34;9.50;99.90
37460;DHT22;23318;50.966;5.284;2023-03-14T06:31:59;9.60;99.90
37460;DHT22;23318;50.966;5.284;2023-03-14T06:34:25;9.60;99.90
37460;DHT22;23318;50.966;5.284;2023-03-14T06:36:51;9.60;99.90
37460;DHT22;23318;50.966;5.284;2023-03-14T06:39:16;9.70;99.90
37460;DHT22;23318;50.966;5.284;2023-03-14T06:41:42;9.70;99.90
37460;DHT22;23318;50.966;5.284;2023-03-14T06:44:08;9.70;99.90
37460;DHT22;23318;50.966;5.284;2023-03-14T06:46:33;9.70;99.90
37460;DHT22;23318;50.966;5.284;2023-03-14T06:48:59;9.80;99.90
37460;DHT22;23318;50.966;5.284;2023-03-14T06:51:24;9.80;99.90
37460;DHT22;23318;50.966;5.284;2023-03-14T06:53:50;9.80;99.90
37460;DHT22;23318;50.966;5.284;2023-03-14T06:56:16;9.90;99.90
37460;DHT22;23318;50.966;5.284;2023-03-14T06:58:41;9.90;99.90
37460;DHT22;23318;50.966;5.284;2023-03-14T07:01:20;10.00;99.90
37460;DHT22;23318;50.966;5.284;2023-03-14T07:03:46;10.00;99.90
37460;DHT22;23318;50.966;5.284;2023-03-14T07:06:11;10.10;99.90
37460;DHT22;23318;50.966;5.284;2023-03-14T07:08:37;10.00;99.90
37460;DHT22;23318;50.966;5.284;2023-03-14T07:11:04;10.10;99.90
37460;DHT22;23318;50.966;5.284;2023-03-14T07:13:30;10.10;99.90
37460;DHT22;23318;50.966;5.284;2023-03-14T07:15:56;10.20;99.90
37460;DHT22;23318;50.966;5.284;2023-03-14T07:18:22;10.10;99.90
37460;DHT22;23318;50.966;5.284;2023-03-14T07:20:47;10.10;99.90
37460;DHT22;23318;50.966;5.284;2023-03-14T07:23:13;10.00;99.90
37460;DHT22;23318;50.966;5.284;2023-03-14T07:25:39;10.00;99.90
37460;DHT22;23318;50.966;5.284;2023-03-14T07:28:04;10.00;99.90
37460;DHT22;23318;50.966;5.284;2023-03-14T07:30:30;10.00;99.90
37460;DHT22;23318;50.966;5.284;2023-03-14T07:32:56;9.90;99.90
37460;DHT22;23318;50.966;5.284;2023-03-14T07:35:21;9.90;99.90
37460;DHT22;23318;50.966;5.284;2023-03-14T07:37:47;9.90;99.90
37460;DHT22;23318;50.966;5.284;2023-03-14T07:40:13;9.90;99.90
37460;DHT22;23318;50.966;5.284;2023-03-14T07:42:41;10.00;99.90
37460;DHT22;23318;50.966;5.284;2023-03-14T07:45:08;10.00;99.90
37460;DHT22;23318;50.966;5.284;2023-03-14T07:47:34;9.90;99.90
37460;DHT22;23318;50.966;5.284;2023-03-14T07:49:59;9.90;99.90
37460;DHT22;23318;50.966;5.284;2023-03-14T07:52:25;9.70;99.90
37460;DHT22;23318;50.966;5.284;2023-03-14T07:54:51;8.90;99.90
37460;DHT22;23318;50.966;5.284;2023-03-14T07:57:16;8.40;99.90
37460;DHT22;23318;50.966;5.284;2023-03-14T07:59:42;8.20;99.90
37460;DHT22;23318;50.966;5.284;2023-03-14T08:02:11;8.10;99.90
37460;DHT22;23318;50.966;5.284;2023-03-14T08:04:37;8.00;99.90
37460;DHT22;23318;50.966;5.284;2023-03-14T08:07:03;8.00;99.90
37460;DHT22;23318;50.966;5.284;2023-03-14T08:09:29;7.90;99.90
37460;DHT22;23318;50.966;5.284;2023-03-14T08:11:54;8.00;99.90
37460;DHT22;23318;50.966;5.284;2023-03-14T08:14:20;8.00;99.90
37460;DHT22;23318;50.966;5.284;2023-03-14T08:16:46;8.00;99.90
37460;DHT22;23318;50.966;5.284;2023-03-14T08:19:11;7.90;99.90
37460;DHT22;23318;50.966;5.284;2023-03-14T08:21:37;7.80;99.90
37460;DHT22;23318;50.966;5.284;2023-03-14T08:24:03;7.70;99.90
37460;DHT22;23318;50.966;5.284;2023-03-14T08:26:28;7.70;99.90
37460;DHT22;23318;50.966;5.284;2023-03-14T08:28:54;7.60;99.90
37460;DHT22;23318;50.966;5.284;2023-03-14T08:31:20;7.50;99.90
37460;DHT22;23318;50.966;5.284;2023-03-14T08:33:45;7.50;99.90
37460;DHT22;23318;50.966;5.284;2023-03-14T08:36:11;7.60;99.90
37460;DHT22;23318;50.966;5.284;2023-03-14T08:38:37;7.50;99.90
37460;DHT22;23318;50.966;5.284;2023-03-14T08:41:02;7.40;99.90
37460;DHT22;23318;50.966;5.284;2023-03-14T08:43:29;7.40;99.90
37460;DHT22;23318;50.966;5.284;2023-03-14T08:45:58;7.40;99.90
37460;DHT22;23318;50.966;5.284;2023-03-14T08:48:24;7.60;99.90
37460;DHT22;23318;50.966;5.284;2023-03-14T08:50:50;7.60;99.90
37460;DHT22;23318;50.966;5.284;2023-03-14T08:53:16;7.40;99.90
37460;DHT22;23318;50.966;5.284;2023-03-14T08:55:42;7.40;99.90
37460;DHT22;23318;50.966;5.284;2023-03-14T08:58:07;7.40;99.90
37460;DHT22;23318;50.966;5.284;2023-03-14T09:00:33;7.40;99.90
37460;DHT22;23318;50.966;5.284;2023-03-14T09:02:59;7.50;99.90
37460;DHT22;23318;50.966;5.284;2023-03-14T09:05:24;7.50;99.90
37460;DHT22;23318;50.966;5.284;2023-03-14T09:07:50;7.60;99.90
37460;DHT22;23318;50.966;5.284;2023-03-14T09:10:16;7.60;99.90
37460;DHT22;23318;50.966;5.284;2023-03-14T09:12:41;7.60;99.90
37460;DHT22;23318;50.966;5.284;2023-03-14T09:15:07;7.80;99.90
37460;DHT22;23318;50.966;5.284;2023-03-14T09:17:33;7.70;99.90
37460;DHT22;23318;50.966;5.284;2023-03-14T09:19:59;7.70;99.90
37460;DHT22;23318;50.966;5.284;2023-03-14T09:22:24;7.60;99.90
37460;DHT22;23318;50.966;5.284;2023-03-14T09:24:50;7.80;99.90
37460;DHT22;23318;50.966;5.284;2023-03-14T09:27:16;7.80;99.90
37460;DHT22;23318;50.966;5.284;2023-03-14T09:29:41;7.90;99.90
37460;DHT22;23318;50.966;5.284;2023-03-14T09:32:07;7.90;99.90
37460;DHT22;23318;50.966;5.284;2023-03-14T09:34:33;7.80;99.90
37460;DHT22;23318;50.966;5.284;2023-03-14T09:37:00;7.90;99.90
37460;DHT22;23318;50.966;5.284;2023-03-14T09:39:25;8.00;99.90
37460;DHT22;23318;50.966;5.284;2023-03-14T09:41:52;8.10;99.90
37460;DHT22;23318;50.966;5.284;2023-03-14T09:44:29;8.00;99.90
37460;DHT22;23318;50.966;5.284;2023-03-14T09:46:58;7.80;99.90
37460;DHT22;23318;50.966;5.284;2023-03-14T09:49:34;7.60;99.90
37460;DHT22;23318;50.966;5.284;2023-03-14T09:52:30;7.50;99.90
37460;DHT22;23318;50.966;5.284;2023-03-14T09:55:17;7.40;99.90
37460;DHT22;23318;50.966;5.284;2023-03-14T09:57:43;7.40;99.90
37460;DHT22;23318;50.966;5.284;2023-03-14T10:00:20;7.50;99.90
37460;DHT22;23318;50.966;5.284;2023-03-14T10:05:40;7.30;99.90
37460;DHT22;23318;50.966;5.284;2023-03-14T10:08:06;7.10;99.90
37460;DHT22;23318;50.966;5.284;2023-03-14T10:10:32;7.20;99.90
37460;DHT22;23318;50.966;5.284;2023-03-14T10:13:18;7.30;99.90
37460;DHT22;23318;50.966;5.284;2023-03-14T10:16:04;7.30;99.90
37460;DHT22;23318;50.966;5.284;2023-03-14T10:18:32;7.30;99.90
37460;DHT22;23318;50.966;5.284;2023-03-14T10:21:04;7.60;99.90
37460;DHT22;23318;50.966;5.284;2023-03-14T10:23:33;7.50;99.90
37460;DHT22;23318;50.966;5.284;2023-03-14T10:26:11;7.60;99.90
37460;DHT22;23318;50.966;5.284;2023-03-14T10:28:42;7.40;99.90
37460;DHT22;23318;50.966;5.284;2023-03-14T10:31:08;7.30;99.90
37460;DHT22;23318;50.966;5.284;2023-03-14T10:33:36;7.30;99.90
37460;DHT22;23318;50.966;5.284;2023-03-14T10:38:42;7.20;99.90
37460;DHT22;23318;50.966;5.284;2023-03-14T10:41:23;7.20;99.90
37460;DHT22;23318;50.966;5.284;2023-03-14T10:43:51;7.30;99.90
37460;DHT22;23318;50.966;5.284;2023-03-14T10:46:19;7.30;99.90
37460;DHT22;23318;50.966;5.284;2023-03-14T10:48:46;7.30;99.90
37460;DHT22;23318;50.966;5.284;2023-03-14T10:51:22;7.20;99.90
37460;DHT22;23318;50.966;5.284;2023-03-14T10:56:28;7.20;99.90
37460;DHT22;23318;50.966;5.284;2023-03-14T10:58:58;7.10;99.90
37460;DHT22;23318;50.966;5.284;2023-03-14T11:06:55;7.20;99.90
37460;DHT22;23318;50.966;5.284;2023-03-14T11:09:27;7.10;99.90
37460;DHT22;23318;50.966;5.284;2023-03-14T11:11:58;7.20;99.90
37460;DHT22;23318;50.966;5.284;2023-03-14T11:14:34;7.30;99.90
37460;DHT22;23318;50.966;5.284;2023-03-14T11:17:21;7.20;99.90
37460;DHT22;23318;50.966;5.284;2023-03-14T11:22:43;8.30;99.90
37460;DHT22;23318;50.966;5.284;2023-03-14T11:25:21;8.10;99.90
37460;DHT22;23318;50.966;5.284;2023-03-14T11:28:18;8.00;99.90
37460;DHT22;23318;50.966;5.284;2023-03-14T11:30:55;7.80;99.90
37460;DHT22;23318;50.966;5.284;2023-03-14T11:33:28;7.50;99.90
37460;DHT22;23318;50.966;5.284;2023-03-14T11:36:11;7.40;99.90
37460;DHT22;23318;50.966;5.284;2023-03-14T11:38:43;7.00;99.90
37460;DHT22;23318;50.966;5.284;2023-03-14T11:41:25;6.80;99.90
37460;DHT22;23318;50.966;5.284;2023-03-14T11:43:57;6.50;99.90
37460;DHT22;23318;50.966;5.284;2023-03-14T11:46:33;6.60;99.90
37460;DHT22;23318;50.966;5.284;2023-03-14T11:49:32;6.60;99.90
37460;DHT22;23318;50.966;5.284;2023-03-14T11:52:05;6.80;99.90
37460;DHT22;23318;50.966;5.284;2023-03-14T11:54:52;7.00;99.90
37460;DHT22;23318;50.966;5.284;2023-03-14T11:57:20;7.30;99.90
37460;DHT22;23318;50.966;5.284;2023-03-14T12:00:00;7.60;99.90
37460;DHT22;23318;50.966;5.284;2023-03-14T12:10:58;9.70;99.90
37460;DHT22;23318;50.966;5.284;2023-03-14T12:13:29;10.10;99.90
37460;DHT22;23318;50.966;5.284;2023-03-14T12:16:01;9.40;99.90
37460;DHT22;23318;50.966;5.284;2023-03-14T12:18:34;8.50;99.90
37460;DHT22;23318;50.966;5.284;2023-03-14T12:21:08;8.10;99.90
37460;DHT22;23318;50.966;5.284;2023-03-14T12:26:12;7.50;99.90
37460;DHT22;23318;50.966;5.284;2023-03-14T12:28:43;7.10;99.90
37460;DHT22;23318;50.966;5.284;2023-03-14T12:42:02;6.40;99.90
37460;DHT22;23318;50.966;5.284;2023-03-14T12:46:58;6.10;99.90
37460;DHT22;23318;50.966;5.284;2023-03-14T12:49:31;6.00;99.90
37460;DHT22;23318;50.966;5.284;2023-03-14T12:52:01;6.00;99.90
37460;DHT22;23318;50.966;5.284;2023-03-14T12:54:57;5.90;99.90
37460;DHT22;23318;50.966;5.284;2023-03-14T13:02:43;6.10;99.90
37460;DHT22;23318;50.966;5.284;2023-03-14T13:10:18;6.40;99.90
37460;DHT22;23318;50.966;5.284;2023-03-14T13:12:54;6.40;99.90
37460;DHT22;23318;50.966;5.284;2023-03-14T13:15:33;6.50;99.90
37460;DHT22;23318;50.966;5.284;2023-03-14T13:18:03;6.60;99.90
37460;DHT22;23318;50.966;5.284;2023-03-14T13:20:37;6.80;99.90
37460;DHT22;23318;50.966;5.284;2023-03-14T13:23:04;6.90;99.90
37460;DHT22;23318;50.966;5.284;2023-03-14T13:25:32;7.10;99.90
37460;DHT22;23318;50.966;5.284;2023-03-14T13:27:58;7.20;99.90
37460;DHT22;23318;50.966;5.284;2023-03-14T13:30:27;7.30;99.90
37460;DHT22;23318;50.966;5.284;2023-03-14T13:32:54;7.20;99.90
37460;DHT22;23318;50.966;5.284;2023-03-14T13:35:29;6.90;99.90
37460;DHT22;23318;50.966;5.284;2023-03-14T13:38:00;6.80;99.90
37460;DHT22;23318;50.966;5.284;2023-03-14T13:40:34;6.70;99.90
37460;DHT22;23318;50.966;5.284;2023-03-14T13:43:15;6.70;99.90
37460;DHT22;23318;50.966;5.284;2023-03-14T13:48:48;6.70;99.90
37460;DHT22;23318;50.966;5.284;2023-03-14T13:51:16;6.90;99.90
37460;DHT22;23318;50.966;5.284;2023-03-14T13:53:44;7.00;99.90
37460;DHT22;23318;50.966;5.284;2023-03-14T13:56:11;7.10;99.90
37460;DHT22;23318;50.966;5.284;2023-03-14T13:58:38;7.30;99.90
37460;DHT22;23318;50.966;5.284;2023-03-14T14:01:16;7.40;99.90
37460;DHT22;23318;50.966;5.284;2023-03-14T14:03:45;7.50;99.90
37460;DHT22;23318;50.966;5.284;2023-03-14T14:06:26;7.50;99.90
37460;DHT22;23318;50.966;5.284;2023-03-14T14:08:57;7.60;99.90
37460;DHT22;23318;50.966;5.284;2023-03-14T14:12:00;7.90;99.90
37460;DHT22;23318;50.966;5.284;2023-03-14T14:14:39;7.80;99.90
37460;DHT22;23318;50.966;5.284;2023-03-14T14:17:09;7.40;99.90
37460;DHT22;23318;50.966;5.284;2023-03-14T14:19:37;7.10;99.90
37460;DHT22;23318;50.966;5.284;2023-03-14T14:22:04;6.90;99.90
37460;DHT22;23318;50.966;5.284;2023-03-14T14:24:31;6.70;99.90
37460;DHT22;23318;50.966;5.284;2023-03-14T14:29:34;6.60;99.90
37460;DHT22;23318;50.966;5.284;2023-03-14T14:32:13;6.60;99.90
37460;DHT22;23318;50.966;5.284;2023-03-14T14:34:44;6.50;99.90
37460;DHT22;23318;50.966;5.284;2023-03-14T14:37:19;6.50;99.90
37460;DHT22;23318;50.966;5.284;2023-03-14T14:39:49;6.30;99.90
37460;DHT22;23318;50.966;5.284;2023-03-14T14:42:18;6.50;99.90
37460;DHT22;23318;50.966;5.284;2023-03-14T14:44:44;6.60;99.90
37460;DHT22;23318;50.966;5.284;2023-03-14T14:47:14;6.70;99.90
37460;DHT22;23318;50.966;5.284;2023-03-14T14:49:41;7.00;99.90
37460;DHT22;23318;50.966;5.284;2023-03-14T14:52:15;7.10;99.90
37460;DHT22;23318;50.966;5.284;2023-03-14T14:54:51;7.20;99.90
37460;DHT22;23318;50.966;5.284;2023-03-14T14:57:31;7.40;99.90
37460;DHT22;23318;50.966;5.284;2023-03-14T15:00:17;7.30;99.90
37460;DHT22;23318;50.966;5.284;2023-03-14T15:02:47;7.10;99.90
37460;DHT22;23318;50.966;5.284;2023-03-14T15:05:20;6.80;99.90
37460;DHT22;23318;50.966;5.284;2023-03-14T15:07:46;7.00;99.90
37460;DHT22;23318;50.966;5.284;2023-03-14T15:10:20;7.20;99.90
37460;DHT22;23318;50.966;5.284;2023-03-14T15:12:46;7.10;99.90
37460;DHT22;23318;50.966;5.284;2023-03-14T15:15:16;7.20;99.90
37460;DHT22;23318;50.966;5.284;2023-03-14T15:17:42;7.20;99.90
37460;DHT22;23318;50.966;5.284;2023-03-14T15:20:13;7.20;99.90
37460;DHT22;23318;50.966;5.284;2023-03-14T15:22:40;7.20;99.20
37460;DHT22;23318;50.966;5.284;2023-03-14T15:25:06;7.40;97.20
37460;DHT22;23318;50.966;5.284;2023-03-14T15:27:33;7.30;98.10
37460;DHT22;23318;50.966;5.284;2023-03-14T15:29:59;7.30;98.80
37460;DHT22;23318;50.966;5.284;2023-03-14T15:32:26;7.20;99.20
37460;DHT22;23318;50.966;5.284;2023-03-14T15:34:56;6.90;99.40
37460;DHT22;23318;50.966;5.284;2023-03-14T15:37:22;6.60;99.40
37460;DHT22;23318;50.966;5.284;2023-03-14T15:39:48;6.60;98.90
37460;DHT22;23318;50.966;5.284;2023-03-14T15:42:14;6.70;98.20
37460;DHT22;23318;50.966;5.284;2023-03-14T15:44:40;6.70;99.20
37460;DHT22;23318;50.966;5.284;2023-03-14T15:47:05;6.80;99.40
37460;DHT22;23318;50.966;5.284;2023-03-14T15:49:32;6.70;99.50
37460;DHT22;23318;50.966;5.284;2023-03-14T15:51:58;6.90;98.10
37460;DHT22;23318;50.966;5.284;2023-03-14T15:54:25;6.90;98.10
37460;DHT22;23318;50.966;5.284;2023-03-14T15:56:56;6.90;98.00
37460;DHT22;23318;50.966;5.284;2023-03-14T15:59:23;6.90;97.80
37460;DHT22;23318;50.966;5.284;2023-03-14T16:01:49;6.90;98.60
37460;DHT22;23318;50.966;5.284;2023-03-14T16:04:15;7.10;98.20
37460;DHT22;23318;50.966;5.284;2023-03-14T16:06:41;7.10;98.20
37460;DHT22;23318;50.966;5.284;2023-03-14T16:09:07;6.90;97.80
37460;DHT22;23318;50.966;5.284;2023-03-14T16:11:32;6.90;98.40
37460;DHT22;23318;50.966;5.284;2023-03-14T16:13:58;7.10;98.40
37460;DHT22;23318;50.966;5.284;2023-03-14T16:16:24;7.20;98.30
37460;DHT22;23318;50.966;5.284;2023-03-14T16:18:49;7.40;98.10
37460;DHT22;23318;50.966;5.284;2023-03-14T16:21:17;7.10;97.90
37460;DHT22;23318;50.966;5.284;2023-03-14T16:23:44;6.80;98.20
37460;DHT22;23318;50.966;5.284;2023-03-14T16:26:12;6.90;97.80
37460;DHT22;23318;50.966;5.284;2023-03-14T16:28:38;7.00;98.30
37460;DHT22;23318;50.966;5.284;2023-03-14T16:31:06;6.90;97.00
37460;DHT22;23318;50.966;5.284;2023-03-14T16:33:33;6.70;97.80
37460;DHT22;23318;50.966;5.284;2023-03-14T16:36:01;6.70;97.80
37460;DHT22;23318;50.966;5.284;2023-03-14T16:38:31;6.70;98.60
37460;DHT22;23318;50.966;5.284;2023-03-14T16:43:28;6.70;98.70
37460;DHT22;23318;50.966;5.284;2023-03-14T16:45:57;6.60;99.00
37460;DHT22;23318;50.966;5.284;2023-03-14T16:48:24;6.60;99.20
37460;DHT22;23318;50.966;5.284;2023-03-14T16:50:50;6.60;99.20
37460;DHT22;23318;50.966;5.284;2023-03-14T16:53:16;6.50;99.30
37460;DHT22;23318;50.966;5.284;2023-03-14T16:55:42;6.50;99.60
37460;DHT22;23318;50.966;5.284;2023-03-14T16:58:08;6.50;99.90